createdAt,value
2022-12-27T00:00:27.136Z,87.92
2022-12-27T00:01:27.104Z,87.81
2022-12-27T00:02:27.067Z,87.71
2022-12-27T00:03:27.057Z,87.92
2022-12-27T00:04:27.046Z,87.81
2022-12-27T00:05:27.065Z,87.71
2022-12-27T00:06:27.041Z,87.71
2022-12-27T00:07:27.029Z,87.71
2022-12-27T00:08:27.020Z,87.81
2022-12-27T00:09:27.041Z,88.17
2022-12-27T00:10:27.034Z,88.12
2022-12-27T00:11:27.018Z,88.12
2022-12-27T00:12:26.997Z,88.17
2022-12-27T00:13:26.975Z,88.06
2022-12-27T00:14:27.977Z,88.27
2022-12-27T00:15:26.999Z,88.58
2022-12-27T00:16:26.981Z,88.79
2022-12-27T00:17:26.956Z,89.31
2022-12-27T00:18:26.947Z,89.41
2022-12-27T00:19:27.524Z,89.62
2022-12-27T00:20:27.282Z,89.52
2022-12-27T00:21:26.926Z,89.94
2022-12-27T00:22:26.912Z,89.98
2022-12-27T00:23:26.915Z,90.29
2022-12-27T00:24:26.920Z,90.08
2022-12-27T00:25:26.920Z,90.19
2022-12-27T00:26:26.898Z,90.39
2022-12-27T00:27:26.875Z,90.50
2022-12-27T00:28:26.868Z,90.39
2022-12-27T00:29:26.892Z,90.50
2022-12-27T00:30:26.885Z,90.91
2022-12-27T00:31:26.914Z,90.70
2022-12-27T00:32:26.843Z,90.70
2022-12-27T00:33:26.835Z,90.39
2022-12-27T00:34:26.872Z,90.95
2022-12-27T00:35:26.852Z,91.02
2022-12-27T00:36:26.826Z,91.06
2022-12-27T00:37:26.810Z,91.12
2022-12-27T00:38:26.799Z,91.06
2022-12-27T00:39:26.814Z,91.06
2022-12-27T00:40:26.811Z,91.27
2022-12-27T00:41:26.780Z,91.16
2022-12-27T00:42:26.783Z,91.37
2022-12-27T00:43:26.758Z,91.06
2022-12-27T00:44:26.751Z,91.27
2022-12-27T00:45:26.807Z,91.58
2022-12-27T00:46:26.738Z,91.47
2022-12-27T00:47:26.730Z,91.47
2022-12-27T00:48:26.721Z,91.27
2022-12-27T00:49:26.735Z,91.58
2022-12-27T00:50:26.738Z,91.78
2022-12-27T00:51:26.708Z,91.58
2022-12-27T00:52:26.691Z,91.78
2022-12-27T00:53:26.703Z,91.72
2022-12-27T00:54:26.687Z,92.03
2022-12-27T00:55:26.705Z,92.03
2022-12-27T00:56:26.670Z,91.89
2022-12-27T00:57:26.667Z,92.00
2022-12-27T00:58:26.658Z,91.72
2022-12-27T00:59:26.674Z,91.78
2022-12-27T01:00:27.659Z,91.89
2022-12-27T01:01:26.798Z,91.89
2022-12-27T01:02:26.638Z,92.00
2022-12-27T01:03:26.630Z,92.00
2022-12-27T01:04:26.606Z,91.68
2022-12-27T01:05:26.629Z,91.78
2022-12-27T01:06:26.592Z,91.58
2022-12-27T01:07:26.584Z,91.68
2022-12-27T01:08:26.577Z,91.47
2022-12-27T01:09:26.570Z,91.78
2022-12-27T01:10:26.599Z,91.93
2022-12-27T01:11:26.564Z,91.93
2022-12-27T01:12:26.560Z,91.78
2022-12-27T01:13:26.538Z,92.00
2022-12-27T01:14:26.533Z,91.89
2022-12-27T01:15:26.548Z,92.21
2022-12-27T01:16:26.588Z,92.00
2022-12-27T01:17:26.521Z,93.04
2022-12-27T01:18:26.515Z,92.66
2022-12-27T01:19:26.493Z,92.46
2022-12-27T01:20:26.514Z,92.31
2022-12-27T01:21:26.486Z,92.31
2022-12-27T01:22:26.478Z,92.31
2022-12-27T01:23:26.476Z,92.52
2022-12-27T01:24:26.457Z,92.31
2022-12-27T01:25:26.490Z,92.21
2022-12-27T01:26:26.462Z,92.35
2022-12-27T01:27:26.432Z,92.31
2022-12-27T01:28:26.435Z,92.56
2022-12-27T01:29:26.419Z,92.62
2022-12-27T01:30:26.434Z,92.77
2022-12-27T01:31:26.443Z,92.83
2022-12-27T01:32:26.393Z,92.83
2022-12-27T01:33:26.392Z,92.66
2022-12-27T01:34:26.391Z,92.93
2022-12-27T01:35:26.399Z,92.97
2022-12-27T01:36:26.368Z,92.97
2022-12-27T01:37:26.369Z,92.97
2022-12-27T01:38:26.352Z,92.97
2022-12-27T01:39:26.357Z,92.77
2022-12-27T01:40:26.368Z,92.87
2022-12-27T01:41:26.334Z,92.97
2022-12-27T01:42:26.331Z,93.29
2022-12-27T01:43:26.310Z,92.97
2022-12-27T01:44:26.337Z,92.83
2022-12-27T01:45:26.931Z,92.97
2022-12-27T01:46:26.295Z,93.04
2022-12-27T01:47:26.295Z,93.08
2022-12-27T01:48:26.282Z,92.77
2022-12-27T01:49:26.268Z,92.72
2022-12-27T01:50:26.293Z,92.72
2022-12-27T01:51:26.263Z,92.31
2022-12-27T01:52:26.261Z,92.21
2022-12-27T01:53:26.242Z,92.52
2022-12-27T01:54:26.234Z,92.41
2022-12-27T01:55:26.254Z,92.72
2022-12-27T01:56:26.223Z,92.52
2022-12-27T01:57:26.224Z,92.83
2022-12-27T01:58:26.202Z,92.93
2022-12-27T01:59:26.195Z,92.21
2022-12-27T02:00:26.245Z,92.10
2022-12-27T02:01:26.273Z,93.04
2022-12-27T02:02:26.268Z,92.52
2022-12-27T02:03:26.198Z,92.52
2022-12-27T02:04:26.171Z,92.21
2022-12-27T02:05:26.191Z,92.56
2022-12-27T02:06:26.154Z,92.87
2022-12-27T02:07:26.135Z,93.29
2022-12-27T02:08:26.142Z,93.91
2022-12-27T02:09:26.117Z,94.02
2022-12-27T02:10:26.113Z,93.44
2022-12-27T02:11:26.136Z,93.85
2022-12-27T02:12:26.094Z,94.12
2022-12-27T02:13:26.090Z,93.81
2022-12-27T02:14:28.160Z,94.17
2022-12-27T02:15:27.071Z,94.02
2022-12-27T02:16:26.133Z,93.96
2022-12-27T02:17:26.068Z,94.06
2022-12-27T02:18:26.048Z,94.27
2022-12-27T02:19:26.041Z,94.17
2022-12-27T02:20:26.126Z,94.17
2022-12-27T02:21:26.065Z,94.69
2022-12-27T02:22:26.024Z,94.58
2022-12-27T02:23:26.009Z,94.69
2022-12-27T02:24:26.006Z,94.58
2022-12-27T02:25:26.007Z,94.58
2022-12-27T02:26:26.021Z,94.27
2022-12-27T02:27:25.979Z,94.58
2022-12-27T02:28:25.982Z,94.79
2022-12-27T02:29:25.963Z,95.10
2022-12-27T02:30:25.957Z,95.10
2022-12-27T02:31:25.976Z,94.94
2022-12-27T02:32:25.963Z,95.78
2022-12-27T02:33:25.947Z,95.67
2022-12-27T02:34:25.937Z,95.88
2022-12-27T02:35:25.930Z,95.67
2022-12-27T02:36:25.941Z,95.88
2022-12-27T02:37:25.925Z,95.88
2022-12-27T02:38:25.912Z,95.88
2022-12-27T02:39:25.917Z,96.03
2022-12-27T02:40:25.884Z,95.88
2022-12-27T02:41:25.915Z,95.98
2022-12-27T02:42:25.868Z,96.09
2022-12-27T02:43:25.865Z,95.78
2022-12-27T02:44:25.881Z,95.98
2022-12-27T02:45:25.840Z,96.19
2022-12-27T02:46:25.901Z,96.13
2022-12-27T02:47:25.832Z,96.30
2022-12-27T02:48:25.832Z,96.50
2022-12-27T02:49:25.828Z,96.44
2022-12-27T02:50:25.802Z,96.44
2022-12-27T02:51:25.825Z,96.50
2022-12-27T02:52:25.889Z,96.34
2022-12-27T02:53:25.797Z,96.40
2022-12-27T02:54:25.763Z,96.44
2022-12-27T02:55:26.766Z,96.23
2022-12-27T02:56:25.806Z,96.34
2022-12-27T02:57:25.756Z,96.50
2022-12-27T02:58:25.752Z,96.30
2022-12-27T02:59:25.783Z,96.61
2022-12-27T03:00:25.723Z,96.55
2022-12-27T03:01:25.854Z,96.44
2022-12-27T03:02:25.940Z,96.55
2022-12-27T03:03:25.736Z,96.50
2022-12-27T03:04:25.698Z,96.55
2022-12-27T03:05:25.682Z,96.66
2022-12-27T03:06:25.677Z,96.86
2022-12-27T03:07:25.695Z,97.07
2022-12-27T03:08:25.659Z,96.97
2022-12-27T03:09:25.654Z,96.76
2022-12-27T03:10:25.654Z,96.76
2022-12-27T03:11:25.646Z,96.76
2022-12-27T03:12:25.665Z,96.86
2022-12-27T03:13:25.629Z,96.76
2022-12-27T03:14:25.615Z,96.97
2022-12-27T03:15:30.388Z,96.97
2022-12-27T03:16:27.695Z,96.97
2022-12-27T03:17:25.618Z,97.59
2022-12-27T03:18:25.587Z,97.07
2022-12-27T03:19:25.587Z,97.55
2022-12-27T03:20:25.583Z,97.49
2022-12-27T03:21:25.572Z,97.07
2022-12-27T03:22:25.592Z,97.59
2022-12-27T03:23:25.557Z,97.38
2022-12-27T03:24:25.565Z,97.28
2022-12-27T03:25:25.544Z,97.28
2022-12-27T03:26:25.548Z,97.38
2022-12-27T03:27:25.544Z,97.24
2022-12-27T03:28:25.512Z,97.07
2022-12-27T03:29:25.508Z,96.40
2022-12-27T03:30:25.492Z,96.66
2022-12-27T03:31:25.498Z,96.50
2022-12-27T03:32:25.499Z,96.40
2022-12-27T03:33:25.477Z,96.92
2022-12-27T03:34:25.467Z,96.92
2022-12-27T03:35:25.466Z,96.92
2022-12-27T03:36:25.454Z,97.03
2022-12-27T03:37:25.471Z,96.71
2022-12-27T03:38:25.453Z,96.92
2022-12-27T03:39:25.433Z,96.50
2022-12-27T03:40:25.419Z,96.67
2022-12-27T03:41:25.437Z,96.46
2022-12-27T03:42:25.438Z,96.46
2022-12-27T03:43:25.401Z,96.36
2022-12-27T03:44:25.394Z,96.25
2022-12-27T03:45:25.393Z,96.25
2022-12-27T03:46:25.406Z,96.25
2022-12-27T03:47:25.405Z,96.15
2022-12-27T03:48:25.367Z,96.36
2022-12-27T03:49:25.360Z,96.46
2022-12-27T03:50:25.354Z,95.94
2022-12-27T03:51:25.401Z,96.00
2022-12-27T03:52:25.341Z,96.11
2022-12-27T03:53:25.357Z,96.11
2022-12-27T03:54:25.326Z,95.79
2022-12-27T03:55:31.525Z,95.89
2022-12-27T03:56:27.302Z,95.83
2022-12-27T03:57:25.299Z,95.68
2022-12-27T03:58:25.314Z,95.79
2022-12-27T03:59:25.280Z,95.68
2022-12-27T04:00:25.264Z,95.75
2022-12-27T04:01:57.752Z,96.00
2022-12-27T04:02:25.376Z,95.37
2022-12-27T04:03:25.309Z,95.68
2022-12-27T04:04:25.240Z,95.58
2022-12-27T04:05:25.257Z,96.00
2022-12-27T04:06:25.236Z,95.89
2022-12-27T04:07:25.216Z,96.00
2022-12-27T04:08:25.260Z,95.33
2022-12-27T04:09:25.200Z,95.43
2022-12-27T04:10:25.195Z,95.37
2022-12-27T04:11:25.186Z,95.43
2022-12-27T04:12:25.173Z,95.43
2022-12-27T04:13:25.200Z,95.33
2022-12-27T04:14:25.166Z,95.64
2022-12-27T04:15:25.152Z,95.23
2022-12-27T04:16:25.163Z,95.33
2022-12-27T04:17:25.134Z,95.54
2022-12-27T04:18:25.175Z,95.43
2022-12-27T04:19:25.121Z,95.33
2022-12-27T04:20:25.123Z,95.33
2022-12-27T04:21:25.128Z,95.43
2022-12-27T04:22:25.151Z,95.33
2022-12-27T04:23:25.116Z,95.33
2022-12-27T04:24:25.089Z,95.54
2022-12-27T04:25:25.082Z,95.54
2022-12-27T04:26:25.088Z,95.08
2022-12-27T04:27:25.063Z,94.56
2022-12-27T04:28:25.083Z,94.87
2022-12-27T04:29:25.093Z,94.66
2022-12-27T04:30:25.060Z,94.76
2022-12-27T04:31:25.098Z,94.76
2022-12-27T04:32:25.023Z,94.98
2022-12-27T04:33:25.058Z,94.66
2022-12-27T04:34:25.014Z,94.56
2022-12-27T04:35:25.003Z,94.87
2022-12-27T04:36:24.992Z,95.08
2022-12-27T04:37:24.984Z,95.08
2022-12-27T04:38:24.972Z,95.08
2022-12-27T04:39:25.100Z,95.08
2022-12-27T04:40:24.972Z,95.39
2022-12-27T04:41:24.975Z,95.18
2022-12-27T04:42:24.961Z,95.29
2022-12-27T04:43:24.980Z,95.39
2022-12-27T04:44:24.969Z,95.39
2022-12-27T04:45:24.926Z,95.25
2022-12-27T04:46:24.956Z,95.45
2022-12-27T04:47:24.914Z,95.18
2022-12-27T04:48:24.916Z,95.50
2022-12-27T04:49:25.922Z,95.03
2022-12-27T04:50:24.905Z,94.98
2022-12-27T04:51:24.892Z,94.72
2022-12-27T04:52:24.869Z,95.56
2022-12-27T04:53:24.863Z,95.39
2022-12-27T04:54:24.895Z,95.35
2022-12-27T04:55:24.858Z,95.35
2022-12-27T04:56:24.840Z,95.70
2022-12-27T04:57:24.837Z,95.35
2022-12-27T04:58:24.857Z,95.35
2022-12-27T04:59:24.860Z,95.56
2022-12-27T05:00:24.812Z,95.25
2022-12-27T05:01:24.885Z,95.14
2022-12-27T05:02:24.926Z,95.35
2022-12-27T05:03:24.831Z,95.25
2022-12-27T05:04:24.792Z,95.25
2022-12-27T05:05:24.805Z,95.25
2022-12-27T05:06:24.770Z,95.29
2022-12-27T05:07:24.776Z,95.25
2022-12-27T05:08:24.751Z,95.35
2022-12-27T05:09:24.740Z,95.35
2022-12-27T05:10:24.775Z,95.25
2022-12-27T05:11:24.743Z,95.30
2022-12-27T05:12:24.724Z,95.25
2022-12-27T05:13:24.714Z,95.56
2022-12-27T05:14:24.716Z,95.14
2022-12-27T05:15:24.733Z,94.89
2022-12-27T05:16:24.745Z,95.03
2022-12-27T05:17:24.689Z,94.99
2022-12-27T05:18:24.701Z,94.93
2022-12-27T05:19:24.672Z,94.57
2022-12-27T05:20:24.689Z,94.99
2022-12-27T05:21:24.657Z,95.40
2022-12-27T05:22:24.654Z,95.40
2022-12-27T05:23:24.668Z,94.99
2022-12-27T05:24:24.638Z,94.89
2022-12-27T05:25:24.773Z,94.89
2022-12-27T05:26:24.619Z,95.30
2022-12-27T05:27:24.650Z,94.89
2022-12-27T05:28:24.610Z,94.89
2022-12-27T05:29:24.608Z,94.47
2022-12-27T05:30:24.619Z,94.37
2022-12-27T05:31:24.687Z,94.47
2022-12-27T05:32:24.571Z,94.64
2022-12-27T05:33:24.567Z,94.47
2022-12-27T05:34:24.558Z,94.47
2022-12-27T05:35:24.580Z,94.47
2022-12-27T05:36:24.548Z,94.84
2022-12-27T05:37:24.541Z,94.53
2022-12-27T05:38:24.521Z,94.32
2022-12-27T05:39:24.518Z,94.43
2022-12-27T05:40:24.554Z,94.43
2022-12-27T05:41:24.520Z,94.47
2022-12-27T05:42:24.509Z,94.64
2022-12-27T05:43:24.483Z,94.64
2022-12-27T05:44:24.475Z,94.43
2022-12-27T05:45:24.497Z,94.32
2022-12-27T05:46:24.583Z,94.43
2022-12-27T05:47:24.472Z,94.32
2022-12-27T05:48:24.445Z,94.22
2022-12-27T05:49:24.448Z,94.32
2022-12-27T05:50:24.459Z,94.22
2022-12-27T05:51:24.425Z,94.64
2022-12-27T05:52:24.433Z,94.32
2022-12-27T05:53:24.416Z,94.01
2022-12-27T05:54:24.419Z,94.43
2022-12-27T05:55:24.449Z,94.22
2022-12-27T05:56:24.419Z,94.32
2022-12-27T05:57:24.390Z,94.22
2022-12-27T05:58:24.381Z,94.22
2022-12-27T05:59:24.367Z,94.43
2022-12-27T06:00:24.387Z,94.32
2022-12-27T06:01:24.396Z,94.38
2022-12-27T06:02:24.494Z,94.28
2022-12-27T06:03:24.380Z,94.07
2022-12-27T06:04:24.338Z,93.76
2022-12-27T06:05:24.319Z,93.55
2022-12-27T06:06:24.344Z,93.87
2022-12-27T06:07:24.337Z,93.55
2022-12-27T06:08:24.300Z,93.87
2022-12-27T06:09:24.299Z,93.45
2022-12-27T06:10:24.286Z,93.87
2022-12-27T06:11:24.300Z,93.97
2022-12-27T06:12:24.268Z,93.76
2022-12-27T06:13:24.263Z,93.66
2022-12-27T06:14:24.252Z,93.62
2022-12-27T06:15:24.297Z,93.66
2022-12-27T06:16:25.292Z,94.18
2022-12-27T06:17:24.241Z,94.38
2022-12-27T06:18:24.225Z,94.07
2022-12-27T06:19:24.217Z,94.59
2022-12-27T06:20:24.217Z,94.49
2022-12-27T06:21:24.242Z,94.13
2022-12-27T06:22:24.195Z,94.38
2022-12-27T06:23:24.186Z,94.03
2022-12-27T06:24:24.188Z,94.13
2022-12-27T06:25:24.179Z,94.59
2022-12-27T06:26:24.208Z,94.34
2022-12-27T06:27:24.168Z,94.24
2022-12-27T06:28:24.149Z,94.24
2022-12-27T06:29:24.144Z,94.13
2022-12-27T06:30:24.132Z,94.28
2022-12-27T06:31:24.224Z,94.38
2022-12-27T06:32:24.136Z,94.07
2022-12-27T06:33:24.116Z,93.93
2022-12-27T06:34:24.116Z,94.13
2022-12-27T06:35:24.100Z,93.93
2022-12-27T06:36:24.116Z,93.72
2022-12-27T06:37:24.090Z,93.93
2022-12-27T06:38:24.091Z,94.13
2022-12-27T06:39:24.066Z,94.24
2022-12-27T06:40:24.064Z,94.24
2022-12-27T06:41:24.095Z,94.34
2022-12-27T06:42:24.071Z,94.24
2022-12-27T06:43:24.040Z,94.24
2022-12-27T06:44:24.029Z,94.24
2022-12-27T06:45:25.100Z,94.38
2022-12-27T06:46:24.081Z,94.24
2022-12-27T06:47:24.008Z,94.24
2022-12-27T06:48:24.001Z,94.45
2022-12-27T06:49:25.110Z,94.24
2022-12-27T06:50:23.986Z,94.55
2022-12-27T06:51:24.006Z,94.34
2022-12-27T06:52:23.984Z,94.34
2022-12-27T06:53:23.964Z,94.34
2022-12-27T06:54:23.957Z,94.55
2022-12-27T06:55:23.951Z,94.24
2022-12-27T06:56:23.980Z,94.24
2022-12-27T06:57:23.939Z,94.03
2022-12-27T06:58:23.927Z,94.24
2022-12-27T06:59:23.928Z,94.45
2022-12-27T07:00:23.911Z,93.93
2022-12-27T07:01:24.007Z,94.34
2022-12-27T07:02:23.967Z,94.03
2022-12-27T07:03:23.938Z,94.34
2022-12-27T07:04:23.879Z,94.55
2022-12-27T07:05:23.880Z,94.45
2022-12-27T07:06:23.895Z,94.24
2022-12-27T07:07:23.866Z,94.34
2022-12-27T07:08:23.849Z,93.72
2022-12-27T07:09:23.842Z,93.78
2022-12-27T07:10:23.838Z,93.57
2022-12-27T07:11:23.870Z,93.57
2022-12-27T07:12:23.829Z,93.57
2022-12-27T07:13:23.805Z,93.78
2022-12-27T07:14:24.819Z,93.57
2022-12-27T07:15:23.808Z,93.57
2022-12-27T07:16:23.842Z,93.78
2022-12-27T07:17:23.791Z,93.78
2022-12-27T07:18:23.781Z,93.88
2022-12-27T07:19:23.773Z,93.57
2022-12-27T07:20:23.759Z,93.88
2022-12-27T07:21:23.785Z,93.88
2022-12-27T07:22:23.743Z,93.37
2022-12-27T07:23:23.741Z,93.78
2022-12-27T07:24:23.747Z,93.88
2022-12-27T07:25:23.722Z,93.26
2022-12-27T07:26:23.740Z,93.16
2022-12-27T07:27:23.713Z,93.78
2022-12-27T07:28:23.711Z,93.37
2022-12-27T07:29:23.691Z,93.37
2022-12-27T07:30:23.680Z,93.37
2022-12-27T07:31:23.726Z,93.26
2022-12-27T07:32:23.669Z,93.78
2022-12-27T07:33:23.665Z,93.78
2022-12-27T07:34:23.665Z,93.68
2022-12-27T07:35:23.656Z,93.78
2022-12-27T07:36:23.680Z,93.37
2022-12-27T07:37:23.647Z,93.47
2022-12-27T07:38:23.626Z,93.82
2022-12-27T07:39:23.613Z,94.09
2022-12-27T07:40:23.625Z,93.78
2022-12-27T07:41:23.600Z,93.99
2022-12-27T07:42:23.620Z,94.09
2022-12-27T07:43:23.594Z,94.20
2022-12-27T07:44:23.572Z,94.30
2022-12-27T07:45:23.572Z,94.05
2022-12-27T07:46:23.576Z,94.30
2022-12-27T07:47:23.587Z,94.20
2022-12-27T07:48:23.560Z,94.09
2022-12-27T07:49:23.551Z,94.30
2022-12-27T07:50:23.535Z,93.43
2022-12-27T07:51:23.530Z,94.09
2022-12-27T07:52:23.569Z,93.68
2022-12-27T07:53:23.551Z,93.63
2022-12-27T07:54:23.512Z,93.68
2022-12-27T07:55:23.499Z,93.84
2022-12-27T07:56:26.174Z,93.57
2022-12-27T07:57:24.516Z,93.43
2022-12-27T07:58:23.491Z,93.95
2022-12-27T07:59:23.478Z,94.15
2022-12-27T08:00:23.462Z,94.09
2022-12-27T08:01:23.609Z,93.78
2022-12-27T08:02:23.606Z,93.63
2022-12-27T08:03:23.484Z,93.63
2022-12-27T08:04:23.429Z,93.74
2022-12-27T08:05:27.577Z,93.63
2022-12-27T08:06:24.431Z,93.32
2022-12-27T08:07:23.454Z,93.43
2022-12-27T08:08:23.405Z,93.12
2022-12-27T08:09:23.389Z,93.12
2022-12-27T08:10:23.387Z,93.22
2022-12-27T08:11:23.382Z,93.84
2022-12-27T08:12:23.376Z,93.38
2022-12-27T08:13:23.400Z,93.32
2022-12-27T08:14:23.358Z,93.12
2022-12-27T08:15:23.353Z,93.43
2022-12-27T08:16:23.482Z,93.12
2022-12-27T08:17:23.340Z,93.43
2022-12-27T08:18:23.384Z,93.53
2022-12-27T08:19:23.318Z,93.38
2022-12-27T08:20:23.319Z,93.84
2022-12-27T08:21:23.302Z,93.18
2022-12-27T08:22:23.307Z,92.55
2022-12-27T08:23:23.308Z,92.45
2022-12-27T08:24:23.304Z,92.45
2022-12-27T08:25:23.303Z,92.45
2022-12-27T08:26:23.255Z,92.55
2022-12-27T08:27:24.263Z,92.55
2022-12-27T08:28:23.284Z,92.55
2022-12-27T08:29:23.240Z,92.66
2022-12-27T08:30:23.240Z,92.45
2022-12-27T08:31:23.307Z,92.38
2022-12-27T08:32:23.223Z,92.55
2022-12-27T08:33:23.231Z,92.55
2022-12-27T08:34:23.217Z,92.24
2022-12-27T08:35:51.540Z,92.45
2022-12-27T08:37:25.183Z,92.24
2022-12-27T08:38:23.210Z,92.55
2022-12-27T08:39:23.213Z,92.45
2022-12-27T08:40:23.159Z,92.41
2022-12-27T08:41:23.169Z,92.66
2022-12-27T08:42:24.162Z,91.78
2022-12-27T08:43:23.164Z,91.78
2022-12-27T08:44:23.128Z,92.20
2022-12-27T08:45:23.119Z,91.99
2022-12-27T08:46:23.176Z,92.10
2022-12-27T08:47:23.105Z,92.10
2022-12-27T08:48:23.165Z,92.10
2022-12-27T08:49:23.095Z,91.99
2022-12-27T08:50:23.085Z,91.78
2022-12-27T08:51:32.711Z,91.78
2022-12-27T08:52:25.079Z,92.30
2022-12-27T08:53:23.130Z,92.41
2022-12-27T08:54:23.051Z,92.41
2022-12-27T08:55:23.042Z,92.20
2022-12-27T08:56:23.036Z,92.10
2022-12-27T08:57:23.039Z,91.64
2022-12-27T08:58:23.033Z,91.78
2022-12-27T08:59:23.066Z,91.95
2022-12-27T09:00:23.007Z,91.85
2022-12-27T09:01:23.137Z,92.10
2022-12-27T09:02:24.157Z,91.95
2022-12-27T09:03:23.035Z,91.95
2022-12-27T09:04:23.010Z,92.05
2022-12-27T09:05:22.969Z,92.05
2022-12-27T09:06:22.963Z,92.36
2022-12-27T09:07:22.959Z,92.36
2022-12-27T09:08:22.952Z,91.85
2022-12-27T09:09:22.971Z,91.95
2022-12-27T09:10:22.933Z,91.95
2022-12-27T09:11:22.935Z,92.47
2022-12-27T09:12:22.931Z,92.26
2022-12-27T09:13:22.909Z,92.26
2022-12-27T09:14:22.927Z,92.16
2022-12-27T09:15:22.899Z,92.26
2022-12-27T09:16:22.943Z,92.16
2022-12-27T09:17:22.900Z,90.97
2022-12-27T09:18:22.897Z,91.08
2022-12-27T09:19:22.900Z,90.97
2022-12-27T09:20:22.869Z,90.87
2022-12-27T09:21:22.870Z,90.66
2022-12-27T09:22:22.846Z,90.66
2022-12-27T09:23:22.843Z,90.62
2022-12-27T09:24:22.856Z,90.62
2022-12-27T09:25:22.888Z,90.93
2022-12-27T09:26:22.812Z,90.72
2022-12-27T09:27:22.814Z,90.37
2022-12-27T09:28:22.803Z,89.89
2022-12-27T09:29:23.649Z,89.38
2022-12-27T09:30:22.838Z,89.48
2022-12-27T09:31:22.802Z,89.79
2022-12-27T09:32:22.771Z,89.17
2022-12-27T09:33:22.766Z,89.28
2022-12-27T09:34:22.801Z,89.48
2022-12-27T09:35:22.756Z,89.58
2022-12-27T09:36:22.750Z,89.48
2022-12-27T09:37:22.735Z,89.07
2022-12-27T09:38:22.736Z,89.38
2022-12-27T09:39:22.750Z,89.48
2022-12-27T09:40:22.788Z,89.07
2022-12-27T09:41:59.057Z,88.96
2022-12-27T09:43:27.730Z,88.96
2022-12-27T09:44:23.726Z,88.86
2022-12-27T09:45:22.759Z,88.65
2022-12-27T09:46:22.733Z,89.07
2022-12-27T09:47:22.676Z,89.07
2022-12-27T09:48:26.315Z,89.03
2022-12-27T09:49:23.717Z,88.45
2022-12-27T09:50:22.650Z,88.34
2022-12-27T09:51:22.641Z,88.82
2022-12-27T09:52:22.633Z,88.76
2022-12-27T09:53:22.668Z,88.92
2022-12-27T09:54:22.654Z,88.40
2022-12-27T09:55:22.637Z,88.30
2022-12-27T09:56:22.611Z,88.30
2022-12-27T09:57:22.600Z,88.40
2022-12-27T09:58:22.595Z,88.40
2022-12-27T09:59:22.606Z,88.24
2022-12-27T10:00:35.374Z,88.45
2022-12-27T10:01:23.698Z,88.09
2022-12-27T10:02:56.762Z,87.93
2022-12-27T10:03:22.584Z,87.78
2022-12-27T10:04:24.259Z,87.47
2022-12-27T10:05:23.421Z,87.23
2022-12-27T10:06:23.651Z,87.27
2022-12-27T10:07:22.587Z,87.33
2022-12-27T10:08:22.549Z,87.54
2022-12-27T10:09:22.573Z,86.71
2022-12-27T10:10:22.572Z,87.12
2022-12-27T10:11:22.555Z,87.54
2022-12-27T10:12:24.383Z,86.57
2022-12-27T10:13:24.508Z,86.25
2022-12-27T10:14:22.514Z,86.15
2022-12-27T10:15:22.551Z,86.05
2022-12-27T10:16:22.542Z,85.94
2022-12-27T10:17:22.488Z,85.63
2022-12-27T10:18:22.567Z,85.84
2022-12-27T10:19:22.513Z,85.53
2022-12-27T10:20:22.490Z,85.84
2022-12-27T10:21:22.511Z,85.53
2022-12-27T10:22:22.456Z,84.56
2022-12-27T10:23:22.458Z,85.18
2022-12-27T10:24:22.461Z,85.28
2022-12-27T10:25:22.497Z,84.97
2022-12-27T10:26:22.423Z,85.18
2022-12-27T10:27:22.400Z,84.66
2022-12-27T10:28:22.398Z,85.18
2022-12-27T10:29:22.419Z,84.77
2022-12-27T10:30:22.435Z,84.97
2022-12-27T10:31:22.413Z,85.39
2022-12-27T10:32:22.367Z,85.28
2022-12-27T10:33:22.359Z,84.97
2022-12-27T10:34:22.340Z,85.80
2022-12-27T10:35:22.355Z,85.45
2022-12-27T10:36:22.319Z,84.94
2022-12-27T10:37:22.313Z,84.25
2022-12-27T10:38:22.298Z,84.15
2022-12-27T10:39:22.293Z,85.08
2022-12-27T10:40:22.305Z,84.73
2022-12-27T10:41:22.313Z,84.63
2022-12-27T10:42:22.281Z,84.94
2022-12-27T10:43:22.258Z,84.45
2022-12-27T10:44:22.255Z,84.00
2022-12-27T10:45:22.278Z,84.52
2022-12-27T10:46:23.614Z,84.87
2022-12-27T10:47:22.236Z,84.56
2022-12-27T10:48:22.229Z,84.77
2022-12-27T10:49:22.436Z,84.63
2022-12-27T10:50:22.231Z,84.97
2022-12-27T10:51:22.232Z,84.52
2022-12-27T10:52:22.203Z,84.31
2022-12-27T10:53:22.192Z,84.21
2022-12-27T10:54:22.186Z,84.00
2022-12-27T10:55:22.206Z,84.38
2022-12-27T10:56:22.176Z,83.97
2022-12-27T10:57:22.158Z,83.65
2022-12-27T10:58:22.169Z,83.41
2022-12-27T10:59:22.145Z,83.83
2022-12-27T11:00:22.171Z,82.79
2022-12-27T11:01:22.210Z,83.20
2022-12-27T11:02:22.202Z,83.20
2022-12-27T11:03:22.115Z,83.86
2022-12-27T11:04:22.122Z,84.03
2022-12-27T11:05:22.127Z,83.93
2022-12-27T11:06:22.099Z,83.27
2022-12-27T11:07:22.092Z,82.75
2022-12-27T11:08:22.073Z,82.65
2022-12-27T11:09:22.077Z,82.45
2022-12-27T11:10:22.086Z,82.82
2022-12-27T11:11:22.059Z,82.40
2022-12-27T11:12:22.072Z,82.40
2022-12-27T11:13:22.034Z,81.79
2022-12-27T11:14:22.040Z,81.65
2022-12-27T11:15:22.022Z,81.58
2022-12-27T11:16:22.075Z,81.48
2022-12-27T11:17:21.997Z,81.72
2022-12-27T11:18:22.999Z,82.24
2022-12-27T11:19:21.992Z,81.82
2022-12-27T11:20:21.982Z,81.00
2022-12-27T11:21:27.679Z,82.14
2022-12-27T11:22:23.970Z,81.51
2022-12-27T11:23:21.967Z,81.51
2022-12-27T11:24:21.955Z,81.99
2022-12-27T11:25:21.957Z,81.41
2022-12-27T11:26:21.972Z,81.48
2022-12-27T11:27:21.944Z,81.79
2022-12-27T11:28:21.927Z,80.86
2022-12-27T11:29:21.921Z,81.27
2022-12-27T11:30:21.913Z,80.90
2022-12-27T11:31:21.981Z,80.86
2022-12-27T11:32:21.900Z,81.13
2022-12-27T11:33:24.980Z,81.54
2022-12-27T11:34:22.887Z,80.72
2022-12-27T11:35:21.879Z,80.44
2022-12-27T11:36:21.897Z,80.58
2022-12-27T11:37:21.858Z,81.17
2022-12-27T11:38:21.873Z,80.76
2022-12-27T11:39:21.844Z,80.48
2022-12-27T11:40:21.838Z,80.55
2022-12-27T11:41:27.591Z,80.55
2022-12-27T11:42:23.824Z,80.69
2022-12-27T11:43:21.813Z,80.65
2022-12-27T11:44:21.807Z,80.90
2022-12-27T11:45:21.798Z,80.58
2022-12-27T11:46:21.871Z,80.90
2022-12-27T11:47:21.849Z,81.27
2022-12-27T11:48:21.781Z,80.96
2022-12-27T11:49:21.768Z,81.27
2022-12-27T11:50:21.761Z,81.27
2022-12-27T11:51:21.776Z,81.17
2022-12-27T11:52:21.790Z,81.31
2022-12-27T11:53:21.759Z,80.76
2022-12-27T11:54:21.748Z,80.79
2022-12-27T11:55:21.724Z,80.76
2022-12-27T11:56:21.746Z,80.79
2022-12-27T11:57:21.709Z,81.27
2022-12-27T11:58:21.697Z,81.10
2022-12-27T11:59:21.701Z,80.90
2022-12-27T12:00:21.692Z,81.10
2022-12-27T12:01:21.735Z,81.41
2022-12-27T12:02:21.772Z,81.48
2022-12-27T12:03:21.706Z,81.31
2022-12-27T12:04:21.653Z,81.41
2022-12-27T12:05:21.686Z,81.31
2022-12-27T12:06:21.620Z,81.31
2022-12-27T12:07:22.667Z,81.51
2022-12-27T12:08:21.638Z,81.62
2022-12-27T12:09:21.617Z,81.82
2022-12-27T12:10:21.618Z,81.51
2022-12-27T12:11:21.584Z,81.58
2022-12-27T12:12:22.643Z,81.41
2022-12-27T12:13:21.588Z,81.17
2022-12-27T12:14:21.586Z,81.27
2022-12-27T12:15:21.578Z,81.37
2022-12-27T12:16:21.608Z,80.76
2022-12-27T12:17:21.592Z,80.72
2022-12-27T12:18:21.561Z,81.13
2022-12-27T12:19:21.542Z,80.82
2022-12-27T12:20:21.541Z,81.09
2022-12-27T12:21:21.524Z,80.99
2022-12-27T12:22:21.557Z,80.30
2022-12-27T12:23:21.522Z,79.27
2022-12-27T12:24:21.535Z,79.90
2022-12-27T12:25:21.494Z,79.72
2022-12-27T12:26:21.488Z,80.65
2022-12-27T12:27:21.514Z,80.34
2022-12-27T12:28:47.700Z,80.51
2022-12-27T12:29:23.460Z,80.62
2022-12-27T12:30:27.103Z,80.41
2022-12-27T12:31:23.452Z,80.41
2022-12-27T12:32:21.462Z,80.30
2022-12-27T12:33:21.430Z,80.41
2022-12-27T12:34:21.435Z,79.69
2022-12-27T12:35:21.420Z,79.27
2022-12-27T12:36:21.414Z,80.27
2022-12-27T12:37:21.453Z,79.86
2022-12-27T12:38:21.395Z,79.75
2022-12-27T12:39:21.399Z,78.72
2022-12-27T12:40:21.381Z,79.07
2022-12-27T12:41:21.367Z,79.48
2022-12-27T12:42:21.518Z,79.79
2022-12-27T12:43:21.356Z,79.79
2022-12-27T12:44:21.363Z,79.48
2022-12-27T12:45:21.335Z,79.90
2022-12-27T12:46:21.407Z,79.90
2022-12-27T12:47:21.344Z,80.00
2022-12-27T12:48:21.334Z,79.38
2022-12-27T12:49:21.317Z,80.10
2022-12-27T12:50:21.303Z,79.90
2022-12-27T12:51:21.286Z,79.38
2022-12-27T12:52:21.297Z,79.48
2022-12-27T12:53:21.308Z,79.17
2022-12-27T12:54:21.269Z,79.69